createdAt,value
2022-12-04T06:02:23.772Z,101785.88
2022-12-04T06:07:26.235Z,101785.69
2022-12-04T06:12:30.197Z,101787.31
2022-12-04T06:17:32.381Z,101786.59
2022-12-04T06:22:34.728Z,101785.34
2022-12-04T06:27:36.973Z,101786.97
2022-12-04T06:32:39.149Z,101786.44
2022-12-04T06:37:41.351Z,101783.91
2022-12-04T06:42:43.634Z,101781.38
2022-12-04T06:47:45.822Z,101780.66
2022-12-04T06:52:48.063Z,101778.13
2022-12-04T06:57:50.284Z,101777.94
2022-12-04T07:02:52.738Z,101778.69
2022-12-04T07:07:55.079Z,101774.19
2022-12-04T07:12:57.331Z,101772.94
2022-12-04T07:18:00.221Z,101790.91
2022-12-04T07:23:07.087Z,101792.00
2022-12-04T07:28:09.734Z,101790.41
2022-12-04T07:33:12.075Z,101798.72
2022-12-04T07:38:14.265Z,101792.78
2022-12-04T07:43:16.473Z,101799.22
2022-12-04T07:48:18.842Z,101792.59
2022-12-04T07:53:21.104Z,101790.25
2022-12-04T07:58:23.315Z,101802.50
2022-12-04T08:03:26.118Z,101800.13
2022-12-04T08:08:28.386Z,101806.44
2022-12-04T08:13:30.853Z,101812.56
2022-12-04T08:18:33.688Z,101811.88
2022-12-04T08:23:36.669Z,101815.47
2022-12-04T08:28:39.528Z,101810.97
2022-12-04T08:33:45.572Z,101810.28
2022-12-04T08:38:48.840Z,101809.34
2022-12-04T08:43:54.608Z,101814.41
2022-12-04T08:48:57.840Z,101811.94
2022-12-04T08:54:03.534Z,101816.75
2022-12-04T08:59:06.121Z,101820.38
2022-12-04T09:04:08.497Z,101817.00
2022-12-04T09:09:10.970Z,101810.13
2022-12-04T09:14:13.318Z,101809.59
2022-12-04T09:19:15.534Z,101816.44
2022-12-04T09:24:18.040Z,101807.97
2022-12-04T09:29:20.278Z,101801.31
2022-12-04T09:34:22.498Z,101805.81
2022-12-04T09:39:24.698Z,101811.41
2022-12-04T09:44:39.371Z,101804.00
2022-12-04T09:49:56.835Z,101806.53
2022-12-04T09:55:03.472Z,101790.50
2022-12-04T10:00:07.031Z,101787.25
2022-12-04T10:05:53.701Z,101784.75
2022-12-04T10:11:06.387Z,101776.31
2022-12-04T10:16:14.950Z,101762.06
2022-12-04T10:21:31.231Z,101758.44
2022-12-04T10:26:39.251Z,101760.44
2022-12-04T10:31:44.855Z,101755.03
2022-12-04T10:36:52.121Z,101744.19
2022-12-04T10:42:22.104Z,101749.63
2022-12-04T10:47:25.419Z,101751.75
2022-12-04T10:52:27.942Z,101748.88
2022-12-04T10:57:43.873Z,101738.06
2022-12-04T11:02:46.392Z,101735.69
2022-12-04T11:07:51.679Z,101730.50
2022-12-04T11:13:02.852Z,101729.41
2022-12-04T11:18:09.219Z,101728.31
2022-12-04T11:23:16.556Z,101723.63
2022-12-04T11:28:40.614Z,101722.19
2022-12-04T11:33:48.172Z,101711.72
2022-12-04T11:39:04.082Z,101703.22
2022-12-04T11:44:07.367Z,101711.34
2022-12-04T11:49:21.519Z,101707.19
2022-12-04T11:54:23.676Z,101703.97
2022-12-04T12:00:03.745Z,101701.59
2022-12-04T12:06:06.592Z,101707.72
2022-12-04T12:11:36.204Z,101717.81
2022-12-04T12:16:56.672Z,101710.22
2022-12-04T12:22:14.870Z,101700.88
2022-12-04T12:27:23.088Z,101692.41
2022-12-04T12:32:44.107Z,101691.53
2022-12-04T12:38:01.382Z,101679.63
2022-12-04T12:43:31.937Z,101686.31
2022-12-04T12:48:58.718Z,101684.69
2022-12-04T12:54:11.442Z,101678.56
2022-12-04T12:59:19.405Z,101681.84
2022-12-04T13:04:42.200Z,101671.19
2022-12-04T13:10:06.795Z,101668.66
2022-12-04T13:15:17.717Z,101660.00
2022-12-04T13:20:30.288Z,101667.06
2022-12-04T13:25:40.962Z,101674.25
2022-12-04T13:30:59.728Z,101665.25
2022-12-04T13:36:13.952Z,101671.03
2022-12-04T13:41:20.338Z,101681.66
2022-12-04T13:46:28.632Z,101675.31
2022-12-04T13:51:37.782Z,101663.03
2022-12-04T13:56:41.292Z,101663.59
2022-12-04T14:01:46.771Z,101665.38
2022-12-04T14:06:51.772Z,101670.28
2022-12-04T14:12:01.544Z,101668.66
2022-12-04T14:17:04.277Z,101654.22
2022-12-04T14:22:06.619Z,101638.56
2022-12-04T14:27:42.302Z,101637.13
2022-12-04T14:32:46.908Z,101641.47
2022-12-04T14:38:02.259Z,101642.34
2022-12-04T14:43:05.340Z,101645.03
2022-12-04T14:48:13.229Z,101643.41
2022-12-04T14:54:09.312Z,101644.13
2022-12-04T14:59:18.328Z,101643.78
2022-12-04T15:04:23.486Z,101637.84
2022-12-04T15:09:45.116Z,101641.44
2022-12-04T15:14:50.067Z,101632.81
2022-12-04T15:19:52.284Z,101624.88
2022-12-04T15:24:55.951Z,101636.22
2022-12-04T15:29:59.422Z,101644.31
2022-12-04T15:35:09.016Z,101654.59
2022-12-04T15:40:21.919Z,101652.06
2022-12-04T15:45:29.540Z,101644.66
2022-12-04T15:50:31.904Z,101640.88
2022-12-04T15:55:47.188Z,101632.56
2022-12-04T16:00:56.469Z,101629.22
2022-12-04T16:06:07.480Z,101627.53
2022-12-04T16:11:21.839Z,101645.03
2022-12-04T16:16:24.082Z,101639.25
2022-12-04T16:21:31.419Z,101635.28
2022-12-04T16:26:34.078Z,101633.13
2022-12-04T16:31:38.119Z,101642.31
2022-12-04T16:36:41.460Z,101635.81
2022-12-04T16:41:43.644Z,101634.75
2022-12-04T16:46:45.967Z,101644.84
2022-12-04T16:51:51.419Z,101641.59
2022-12-04T16:56:53.662Z,101641.38
2022-12-04T17:01:56.122Z,101654.91
2022-12-04T17:06:58.415Z,101652.03
2022-12-04T17:12:00.639Z,101650.22
2022-12-04T17:17:02.863Z,101649.47
2022-12-04T17:22:05.135Z,101652.56
2022-12-04T17:27:11.806Z,101642.66
2022-12-04T17:32:14.261Z,101646.06
2022-12-04T17:37:16.466Z,101641.75
2022-12-04T17:42:19.273Z,101641.75
2022-12-04T17:47:21.574Z,101637.41
2022-12-04T17:52:23.822Z,101628.38
2022-12-04T17:57:26.070Z,101623.66
2022-12-04T18:02:28.389Z,101629.44
2022-12-04T18:07:31.473Z,101638.78
2022-12-04T18:12:33.752Z,101627.28
2022-12-04T18:17:37.048Z,101625.09
2022-12-04T18:22:39.253Z,101622.00
2022-12-04T18:27:42.153Z,101628.88
2022-12-04T18:32:45.147Z,101632.34
2022-12-04T18:37:47.706Z,101621.50
2022-12-04T18:42:51.836Z,101620.78
2022-12-04T18:47:54.050Z,101629.25
2022-12-04T18:53:14.688Z,101631.78
2022-12-04T18:58:17.775Z,101625.06
2022-12-04T19:03:20.059Z,101631.72
2022-12-04T19:08:22.266Z,101639.47
2022-12-04T19:13:24.462Z,101636.06
2022-12-04T19:18:26.896Z,101637.81
2022-12-04T19:23:29.105Z,101638.16
2022-12-04T19:28:31.346Z,101643.53
2022-12-04T19:33:33.646Z,101634.19
2022-12-04T19:38:35.949Z,101641.59
2022-12-04T19:43:40.488Z,101634.69
2022-12-04T19:48:45.179Z,101634.28
2022-12-04T19:53:49.049Z,101632.34
2022-12-04T19:58:56.416Z,101631.94
2022-12-04T20:04:02.452Z,101630.53
2022-12-04T20:09:08.805Z,101633.19
2022-12-04T20:14:11.101Z,101633.59
2022-12-04T20:19:15.695Z,101627.06
2022-12-04T20:24:18.244Z,101633.19
2022-12-04T20:29:21.631Z,101623.47
2022-12-04T20:34:23.920Z,101623.09
2022-12-04T20:39:26.299Z,101611.69
2022-12-04T20:44:28.640Z,101620.00
2022-12-04T20:49:30.937Z,101599.22
2022-12-04T20:54:39.414Z,101597.94
2022-12-04T20:59:43.650Z,101595.81
2022-12-04T21:04:45.895Z,101586.94
2022-12-04T21:09:48.231Z,101586.03
2022-12-04T21:15:08.999Z,101593.47
2022-12-04T21:20:11.957Z,101594.91
2022-12-04T21:25:14.389Z,101588.91
2022-12-04T21:30:16.713Z,101594.16
2022-12-04T21:35:18.969Z,101592.19
2022-12-04T21:40:21.250Z,101591.44
2022-12-04T21:45:23.521Z,101597.78
2022-12-04T21:50:25.823Z,101587.53
2022-12-04T21:55:28.094Z,101588.09
2022-12-04T22:00:30.325Z,101583.13
2022-12-04T22:05:32.930Z,101574.41
2022-12-04T22:10:44.056Z,101579.69
2022-12-04T22:15:46.433Z,101581.69
2022-12-04T22:20:50.394Z,101586.88
2022-12-04T22:25:52.600Z,101576.44
2022-12-04T22:30:54.921Z,101585.09
2022-12-04T22:36:05.010Z,101588.69
2022-12-04T22:41:11.684Z,101590.81
2022-12-04T22:46:14.814Z,101584.31
2022-12-04T22:51:20.617Z,101583.06
2022-12-04T22:56:28.503Z,101576.72
2022-12-04T23:01:33.052Z,101560.72
2022-12-04T23:06:35.707Z,101557.31
2022-12-04T23:11:39.275Z,101542.06
2022-12-04T23:16:42.242Z,101552.34
2022-12-04T23:21:44.749Z,101548.03
